Time;durP1;ratioP1;P1;durP2;ratioP2;P2;SDS_P1;SDS_P2;PMS_P1;PMS_P2;Temp;Humidity;BMP_temperature;BMP_pressure;BME280_temperature;BME280_humidity;BME280_pressure;Samples;Min_cycle;Max_cycle;Signal;HPM_P1;HPM_P2
2024/01/05 00:02:05;;;;;;;8.63;3.43;;;7.00;99.90;;;6.93;69.27;94648.94;5010704;28;20449;-60
2024/01/05 00:04:32;;;;;;;6.07;3.57;;;7.00;99.90;;;6.92;69.08;94657.72;5010451;28;20497;-60
2024/01/05 00:07:00;;;;;;;8.73;3.10;;;7.00;99.90;;;6.87;69.76;94663.31;5010280;28;20536;-63
2024/01/05 00:09:28;;;;;;;7.93;3.30;;;7.00;99.90;;;6.81;69.11;94669.03;5010306;28;20453;-60
2024/01/05 00:11:56;;;;;;;4.17;3.40;;;6.90;99.90;;;6.74;69.42;94666.09;5010485;28;20981;-63
2024/01/05 00:14:24;;;;;;;9.13;4.13;;;6.90;99.90;;;6.66;69.23;94675.47;5010305;28;20458;-62
2024/01/05 00:16:52;;;;;;;9.27;4.10;;;6.80;99.90;;;6.63;70.06;94684.38;5011045;28;20466;-62
2024/01/05 00:19:19;;;;;;;16.27;5.53;;;6.80;99.90;;;6.58;69.81;94686.53;5011368;28;20493;-62
2024/01/05 00:21:47;;;;;;;6.93;4.07;;;6.70;99.90;;;6.53;69.62;94686.06;5010853;28;20449;-60
2024/01/05 00:24:14;;;;;;;5.73;4.50;;;6.60;99.90;;;6.48;70.17;94685.59;5013832;28;20497;-61
2024/01/05 00:26:43;;;;;;;6.77;5.03;;;6.60;99.90;;;6.44;70.02;94685.84;5010816;28;20819;-59
2024/01/05 00:29:10;;;;;;;8.70;4.20;;;6.60;99.90;;;6.40;70.17;94678.34;5010249;28;20460;-62
2024/01/05 00:31:39;;;;;;;5.90;4.10;;;6.50;99.90;;;6.38;70.18;94686.31;5010668;28;20799;-58
2024/01/05 00:34:06;;;;;;;4.67;3.57;;;6.50;99.90;;;6.38;70.80;94682.84;5010467;28;20461;-63
2024/01/05 00:36:33;;;;;;;5.27;3.90;;;6.50;99.90;;;6.38;69.98;94683.69;5010443;28;20465;-65
2024/01/05 00:39:01;;;;;;;5.00;3.87;;;6.50;99.90;;;6.39;70.55;94684.53;5010259;28;20953;-60
2024/01/05 00:41:28;;;;;;;5.33;4.40;;;6.50;99.90;;;6.38;70.17;94682.84;5010006;28;20478;-61
2024/01/05 00:43:56;;;;;;;7.23;4.97;;;6.50;99.90;;;6.38;70.09;94694.16;5010472;28;20520;-64
2024/01/05 00:46:24;;;;;;;5.83;4.17;;;6.50;99.90;;;6.37;69.83;94694.25;5010079;28;21012;-64
2024/01/05 00:48:51;;;;;;;12.63;5.00;;;6.50;99.90;;;6.36;69.93;94690.81;5009803;28;20989;-63
2024/01/05 00:51:18;;;;;;;7.53;4.20;;;6.50;99.90;;;6.34;70.18;94687.47;5010083;28;20981;-59
2024/01/05 00:53:46;;;;;;;6.30;4.40;;;6.50;99.90;;;6.35;70.07;94688.31;5009526;28;20453;-59
2024/01/05 00:56:13;;;;;;;11.83;5.83;;;6.40;99.90;;;6.32;70.30;94686.78;5010007;28;20482;-64
2024/01/05 00:58:40;;;;;;;45.03;18.83;;;6.40;99.90;;;6.33;70.54;94690.22;5009802;28;20460;-63
2024/01/05 01:01:09;;;;;;;26.33;11.73;;;6.40;99.90;;;6.31;70.81;94684.28;5009565;28;20470;-65
2024/01/05 01:03:37;;;;;;;15.43;7.67;;;6.40;99.90;;;6.28;70.61;94687.97;5009952;28;20607;-64
2024/01/05 01:06:05;;;;;;;16.80;8.53;;;6.40;99.90;;;6.29;70.47;94687.03;5009940;28;20913;-60
2024/01/05 01:08:32;;;;;;;16.83;8.20;;;6.40;99.90;;;6.28;70.16;94680.94;5009650;28;20456;-59
2024/01/05 01:11:01;;;;;;;13.00;7.67;;;6.40;99.90;;;6.30;70.25;94686.06;5009879;28;20469;-63
2024/01/05 01:13:29;;;;;;;14.30;7.13;;;6.40;99.90;;;6.31;70.78;94687.72;5009772;28;20536;-63
2024/01/05 01:15:56;;;;;;;7.80;5.17;;;6.40;99.90;;;6.33;71.10;94690.22;5009708;28;20473;-64
2024/01/05 01:18:25;;;;;;;4.90;4.10;;;6.40;99.90;;;6.31;70.29;94695.56;5009834;28;20456;-61
2024/01/05 01:20:53;;;;;;;3.20;2.90;;;6.40;99.90;;;6.26;70.34;94703.75;5009480;28;20477;-62
2024/01/05 01:23:21;;;;;;;6.27;3.20;;;6.40;99.90;;;6.20;69.96;94706.00;5009070;28;20489;-62
2024/01/05 01:25:49;;;;;;;6.53;3.90;;;6.30;99.90;;;6.16;70.50;94699.34;5011054;28;20502;-61
2024/01/05 01:28:16;;;;;;;4.87;3.60;;;6.20;99.90;;;6.13;70.40;94705.63;5010584;28;20461;-60
2024/01/05 01:30:44;;;;;;;5.20;3.47;;;6.20;99.90;;;6.13;70.49;94691.75;5010641;28;20473;-63
2024/01/05 01:33:11;;;;;;;9.33;3.00;;;6.20;99.90;;;6.13;70.44;94703.00;5009425;28;21033;-60
2024/01/05 01:35:40;;;;;;;3.20;2.93;;;6.20;99.90;;;6.13;70.43;94700.41;5009379;28;20473;-60
2024/01/05 01:38:08;;;;;;;4.30;3.70;;;6.20;99.90;;;6.13;70.96;94702.19;5009433;28;20460;-59
2024/01/05 01:40:35;;;;;;;4.03;3.43;;;6.20;99.90;;;6.12;70.01;94706.59;5009368;28;20477;-62
2024/01/05 01:43:03;;;;;;;3.70;3.40;;;6.20;99.90;;;6.12;70.27;94700.50;5009247;28;20481;-60
2024/01/05 01:45:31;;;;;;;5.30;3.80;;;6.20;99.90;;;6.13;70.13;94708.22;5009305;28;20566;-63
2024/01/05 01:47:58;;;;;;;3.97;3.07;;;6.20;99.90;;;6.14;70.66;94709.09;5009299;28;20461;-60
2024/01/05 01:50:26;;;;;;;6.77;4.07;;;6.20;99.90;;;6.14;70.16;94704.69;5009522;28;20497;-63
2024/01/05 01:52:54;;;;;;;4.23;3.27;;;6.20;99.90;;;6.15;70.64;94710.72;5009410;28;20457;-59
2024/01/05 01:55:22;;;;;;;15.00;4.53;;;6.20;99.90;;;6.17;70.14;94721.91;5009345;28;20470;-63
2024/01/05 01:57:49;;;;;;;3.40;3.10;;;6.20;99.90;;;6.17;70.56;94727.94;5009880;28;20466;-64
2024/01/05 02:00:17;;;;;;;3.20;2.70;;;6.30;99.90;;;6.17;70.61;94719.28;5010176;28;20477;-62
2024/01/05 02:02:45;;;;;;;3.53;3.23;;;6.30;99.90;;;6.19;70.39;94722.63;5010112;28;20473;-63
2024/01/05 02:05:12;;;;;;;3.93;2.60;;;6.30;99.90;;;6.21;70.10;94731.16;5009987;28;20497;-63
2024/01/05 02:07:39;;;;;;;4.53;2.53;;;6.30;99.90;;;6.22;69.95;94730.22;5008828;28;20450;-60
2024/01/05 02:10:09;;;;;;;6.60;2.60;;;6.30;99.90;;;6.24;70.04;94733.53;5008870;28;20465;-60
2024/01/05 02:12:36;;;;;;;4.90;3.00;;;6.30;99.90;;;6.26;70.30;94739.50;5009096;28;20531;-63
2024/01/05 02:15:05;;;;;;;2.60;2.23;;;6.30;99.90;;;6.26;70.33;94729.88;5008744;28;20476;-64
2024/01/05 02:17:33;;;;;;;2.67;2.47;;;6.40;99.90;;;6.27;70.22;94736.75;5009307;28;20465;-61
2024/01/05 02:20:00;;;;;;;4.27;2.20;;;6.40;99.90;;;6.28;70.30;94738.41;5008330;28;20468;-63
2024/01/05 02:22:29;;;;;;;4.30;2.80;;;6.40;99.90;;;6.28;69.84;94729.75;5008645;28;20453;-60
2024/01/05 02:24:58;;;;;;;12.87;5.83;;;6.40;99.90;;;6.25;69.94;94724.75;5007600;28;20572;-65
2024/01/05 02:27:25;;;;;;;5.77;3.70;;;6.40;99.90;;;6.24;69.75;94733.53;5009082;28;20477;-60
2024/01/05 02:29:52;;;;;;;5.10;2.50;;;6.40;99.90;;;6.22;69.79;94731.03;5008827;28;20504;-63
2024/01/05 02:32:20;;;;;;;6.13;2.83;;;6.30;99.90;;;6.19;70.16;94730.44;5008309;28;20450;-59
2024/01/05 02:34:47;;;;;;;4.20;2.97;;;6.30;99.90;;;6.18;69.79;94726.16;5009012;28;20472;-63
2024/01/05 02:37:14;;;;;;;6.07;2.87;;;6.30;99.90;;;6.18;70.31;94731.38;5009706;28;20450;-60
2024/01/05 02:39:42;;;;;;;3.20;3.00;;;6.30;99.90;;;6.19;70.09;94739.09;5012285;28;20457;-63
2024/01/05 02:42:10;;;;;;;6.60;2.67;;;6.30;99.90;;;6.24;69.90;94734.38;5011943;28;20449;-64
2024/01/05 02:44:38;;;;;;;8.30;2.50;;;6.30;99.90;;;6.29;70.22;94739.25;5011453;28;20493;-62
2024/01/05 02:47:05;;;;;;;9.27;2.97;;;6.30;99.90;;;6.36;70.02;94731.78;5012085;28;20456;-60
2024/01/05 02:49:32;;;;;;;8.23;1.90;;;6.40;99.90;;;6.44;70.21;94735.47;5012394;28;20543;-59
2024/01/05 02:51:59;;;;;;;4.33;2.97;;;6.50;99.90;;;6.54;70.02;94734.75;5012425;28;20532;-63
2024/01/05 02:54:27;;;;;;;8.37;2.50;;;6.60;99.90;;;6.61;69.79;94749.00;5012382;28;20457;-59
2024/01/05 02:56:54;;;;;;;13.37;6.80;;;6.70;99.90;;;6.61;69.41;94756.84;5012001;28;20471;-60
2024/01/05 02:59:22;;;;;;;19.50;8.10;;;6.70;99.90;;;6.54;69.17;94750.44;5012597;28;20458;-61
2024/01/05 03:01:50;;;;;;;12.13;6.50;;;6.60;99.90;;;6.47;69.35;94763.13;5011949;28;20476;-63
2024/01/05 03:04:17;;;;;;;15.23;7.80;;;6.60;99.90;;;6.37;69.41;94759.56;5012201;28;20555;-60
2024/01/05 03:06:45;;;;;;;13.70;6.73;;;6.50;99.90;;;6.29;69.05;94757.53;5012186;28;20474;-59
2024/01/05 03:09:12;;;;;;;8.13;6.00;;;6.40;99.90;;;6.26;69.64;94763.81;5011289;28;20508;-60
2024/01/05 03:11:39;;;;;;;12.43;7.00;;;6.30;99.90;;;6.23;69.74;94763.22;5011923;28;20473;-59
2024/01/05 03:14:07;;;;;;;8.73;6.40;;;6.30;99.90;;;6.18;69.87;94771.41;5011486;28;20640;-60
2024/01/05 03:16:35;;;;;;;12.90;7.20;;;6.30;99.90;;;6.15;69.98;94769.03;5011520;28;20540;-64
2024/01/05 03:19:02;;;;;;;10.50;6.17;;;6.30;99.90;;;6.13;69.96;94770.91;5011728;28;20469;-58
2024/01/05 03:21:30;;;;;;;9.13;5.70;;;6.20;99.90;;;6.10;70.08;94771.13;5010816;28;20469;-63
2024/01/05 03:23:57;;;;;;;12.40;6.37;;;6.20;99.90;;;6.08;69.35;94767.81;5011661;28;20490;-63
2024/01/05 03:26:24;;;;;;;7.10;5.03;;;6.20;99.90;;;6.07;70.00;94785.25;5011661;28;20473;-63
2024/01/05 03:28:51;;;;;;;12.00;6.40;;;6.20;99.90;;;6.06;69.62;94788.81;5011720;28;20457;-59
2024/01/05 03:31:19;;;;;;;10.50;6.70;;;6.20;99.90;;;6.06;69.53;94798.44;5011897;28;20484;-60
2024/01/05 03:33:48;;;;;;;15.77;5.20;;;6.10;99.90;;;6.02;70.26;94797.81;5012700;28;20476;-59
2024/01/05 03:36:15;;;;;;;15.30;8.40;;;6.10;99.90;;;6.00;70.45;94802.31;5011963;28;20494;-63
2024/01/05 03:38:42;;;;;;;12.13;6.13;;;6.10;99.90;;;6.00;69.75;94810.16;5011137;28;20446;-62
2024/01/05 03:41:10;;;;;;;13.43;6.30;;;6.10;99.90;;;5.98;69.92;94812.06;5010954;28;20485;-63
2024/01/05 03:43:37;;;;;;;13.10;5.33;;;6.10;99.90;;;5.97;70.48;94806.94;5010981;28;20446;-63
2024/01/05 03:46:05;;;;;;;12.23;6.20;;;6.10;99.90;;;5.95;70.79;94814.88;5011890;28;20473;-61
2024/01/05 03:48:32;;;;;;;11.90;5.47;;;6.10;99.90;;;5.95;70.37;94811.41;5010560;28;20452;-60
2024/01/05 03:51:02;;;;;;;18.17;5.17;;;6.10;99.90;;;5.92;70.11;94808.06;5010568;28;20528;-60
2024/01/05 03:53:29;;;;;;;10.20;5.87;;;6.10;99.90;;;5.93;70.21;94819.34;5010476;28;20449;-59
2024/01/05 03:55:59;;;;;;;18.10;5.63;;;6.00;99.90;;;5.92;70.45;94815.09;5010999;28;20482;-63
2024/01/05 03:58:26;;;;;;;12.27;5.63;;;6.00;99.90;;;5.89;70.09;94821.34;5011000;28;21404;-63
2024/01/05 04:00:53;;;;;;;6.90;5.37;;;6.00;99.90;;;5.88;70.49;94813.63;5010610;28;21013;-63
2024/01/05 04:03:20;;;;;;;11.33;6.00;;;6.00;99.90;;;5.88;70.22;94816.25;5011077;28;20445;-59
2024/01/05 04:05:48;;;;;;;10.47;5.47;;;6.00;99.90;;;5.87;70.08;94819.78;5010601;28;20493;-60
2024/01/05 04:08:16;;;;;;;6.63;4.80;;;5.90;99.90;;;5.84;70.26;94822.63;5010449;28;20446;-60
2024/01/05 04:10:44;;;;;;;8.40;5.00;;;6.00;99.90;;;5.82;70.25;94832.34;5010387;28;20993;-63
2024/01/05 04:13:11;;;;;;;13.67;6.10;;;5.90;99.90;;;5.79;70.50;94838.63;5010362;28;20865;-60
2024/01/05 04:15:39;;;;;;;8.00;5.30;;;5.90;99.90;;;5.78;70.87;94831.75;5010388;28;20473;-60
2024/01/05 04:18:06;;;;;;;6.40;5.00;;;5.90;99.90;;;5.79;70.51;94843.03;5010844;28;20524;-63
2024/01/05 04:20:34;;;;;;;8.07;5.47;;;5.90;99.90;;;5.78;70.40;94842.19;5009782;28;20862;-59
2024/01/05 04:23:01;;;;;;;7.13;4.97;;;5.90;99.90;;;5.77;70.67;94837.09;5010241;28;20457;-60
2024/01/05 04:25:30;;;;;;;15.40;7.60;;;5.90;99.90;;;5.77;70.32;94839.69;5009953;28;20968;-60
2024/01/05 04:27:59;;;;;;;10.87;6.53;;;5.90;99.90;;;5.72;70.36;94843.47;5010162;28;20477;-60
2024/01/05 04:30:26;;;;;;;11.20;6.30;;;5.90;99.90;;;5.67;70.15;94842.13;5009708;28;20461;-63
2024/01/05 04:32:53;;;;;;;6.90;4.30;;;5.80;99.90;;;5.61;70.42;94840.81;5010389;28;20465;-59
2024/01/05 04:35:20;;;;;;;17.30;5.33;;;5.80;99.90;;;5.56;70.15;94848.09;5010359;28;20469;-63
2024/01/05 04:37:48;;;;;;;15.27;6.17;;;5.70;99.90;;;5.52;70.27;94855.34;5009752;28;20819;-63
2024/01/05 04:40:17;;;;;;;14.77;6.03;;;5.60;99.90;;;5.50;70.67;94852.00;5009774;28;20543;-60
2024/01/05 04:42:45;;;;;;;7.73;5.10;;;5.60;99.90;;;5.49;70.29;94855.53;5010098;28;20450;-60
2024/01/05 04:45:13;;;;;;;17.03;4.50;;;5.60;99.90;;;5.47;70.56;94865.28;5009106;28;20990;-64
2024/01/05 04:47:40;;;;;;;12.40;5.60;;;5.60;99.90;;;5.47;70.61;94865.28;5010369;28;20533;-61
2024/01/05 04:50:10;;;;;;;6.40;4.10;;;5.60;99.90;;;5.47;70.45;94860.06;5009464;28;20492;-60
2024/01/05 04:52:37;;;;;;;19.73;4.33;;;5.60;99.90;;;5.45;70.66;94863.69;5009835;28;20541;-63
2024/01/05 04:55:05;;;;;;;5.73;4.50;;;5.60;99.90;;;5.45;70.93;94874.13;5009990;28;20461;-63
2024/01/05 04:57:33;;;;;;;9.60;4.23;;;5.60;99.90;;;5.45;70.17;94877.56;5009513;28;20449;-63
2024/01/05 05:00:02;;;;;;;15.10;9.50;;;5.60;99.90;;;5.46;70.62;94870.59;5009019;28;20474;-65
2024/01/05 05:02:29;;;;;;;16.93;6.60;;;5.60;99.90;;;5.46;70.69;94878.41;5008716;28;20453;-63
2024/01/05 05:04:57;;;;;;;9.90;5.40;;;5.60;99.90;;;5.44;70.21;94873.31;5008813;28;20489;-60
2024/01/05 05:07:24;;;;;;;33.40;7.23;;;5.60;99.90;;;5.46;70.45;94883.63;5009253;28;20958;-61
2024/01/05 05:09:52;;;;;;;7.30;5.43;;;5.60;99.90;;;5.46;70.58;94883.63;5008604;28;20553;-59
2024/01/05 05:12:18;;;;;;;11.43;6.10;;;5.60;99.90;;;5.46;71.04;94884.47;5007808;28;20527;-60
2024/01/05 05:14:45;;;;;;;8.23;5.70;;;5.60;99.90;;;5.48;70.59;94881.75;5009637;28;20769;-64
2024/01/05 05:17:14;;;;;;;16.93;5.07;;;5.60;99.90;;;5.49;70.75;94886.03;5009638;28;20462;-65
2024/01/05 05:19:41;;;;;;;7.37;5.47;;;5.60;99.90;;;5.50;71.05;94888.53;5009714;28;20441;-67
2024/01/05 05:22:09;;;;;;;13.57;4.53;;;5.60;99.90;;;5.52;71.10;94904.06;5008973;28;20450;-66
2024/01/05 05:24:36;;;;;;;4.40;3.00;;;5.60;99.90;;;5.53;71.09;94900.50;5009056;28;20485;-60
2024/01/05 05:27:04;;;;;;;5.07;3.40;;;5.60;99.90;;;5.56;70.75;94910.72;5008726;28;20461;-64
2024/01/05 05:29:32;;;;;;;8.97;4.07;;;5.70;99.90;;;5.55;71.21;94902.06;5002785;28;20881;-63
2024/01/05 05:31:59;;;;;;;5.37;4.07;;;5.70;99.90;;;5.59;70.94;94907.06;5007721;28;20450;-60
2024/01/05 05:34:28;;;;;;;5.50;3.83;;;5.70;99.90;;;5.60;71.02;94906.13;5009029;28;20446;-60
2024/01/05 05:36:56;;;;;;;7.37;4.33;;;5.70;99.90;;;5.60;70.69;94911.34;5009379;28;20480;-60
2024/01/05 05:39:24;;;;;;;13.00;4.93;;;5.70;99.90;;;5.57;71.10;94913.22;5008885;28;20442;-59
2024/01/05 05:41:51;;;;;;;7.80;4.60;;;5.70;99.90;;;5.59;70.84;94913.13;5009045;28;20500;-60
2024/01/05 05:44:18;;;;;;;10.30;6.40;;;5.70;99.90;;;5.57;70.65;94918.44;5007803;28;20892;-63
2024/01/05 05:46:46;;;;;;;9.47;4.97;;;5.70;99.90;;;5.57;71.02;94917.63;5009039;28;20461;-61
2024/01/05 05:49:13;;;;;;;8.23;4.33;;;5.70;99.90;;;5.57;70.89;94922.84;5008817;28;20472;-59
2024/01/05 05:51:42;;;;;;;10.03;5.13;;;5.70;99.90;;;5.57;70.87;94930.66;5009528;28;20612;-62
2024/01/05 05:54:09;;;;;;;32.87;13.47;;;5.70;99.90;;;5.57;70.70;94922.84;5006761;28;20968;-60
2024/01/05 05:56:36;;;;;;;12.03;6.63;;;5.70;99.90;;;5.56;70.99;94921.16;5008336;28;20473;-59
2024/01/05 05:59:04;;;;;;;6.40;4.30;;;5.70;99.90;;;5.56;70.77;94926.38;5008450;28;20543;-58
2024/01/05 06:01:31;;;;;;;9.83;4.90;;;5.70;99.90;;;5.56;70.69;94932.44;5008162;28;20474;-59
2024/01/05 06:03:58;;;;;;;6.40;4.47;;;5.70;99.90;;;5.57;70.46;94928.88;5007808;28;20454;-59
2024/01/05 06:06:26;;;;;;;10.67;5.07;;;5.70;99.90;;;5.59;70.76;94935.78;5006425;28;20881;-60
2024/01/05 06:08:55;;;;;;;8.30;4.47;;;5.70;99.90;;;5.61;70.68;94941.69;5007988;28;20450;-60
2024/01/05 06:11:26;;;;;;;9.97;5.27;;;5.70;99.90;;;5.63;70.53;94943.28;5007642;28;20461;-59
2024/01/05 06:13:53;;;;;;;5.60;5.03;;;5.70;99.90;;;5.65;70.73;94937.94;5012826;28;20437;-62
2024/01/05 06:16:20;;;;;;;12.27;4.73;;;5.80;99.90;;;5.66;70.66;94940.44;5013117;28;20469;-60
2024/01/05 06:18:48;;;;;;;9.87;5.47;;;5.80;99.90;;;5.78;71.33;94945.72;5011405;28;20500;-60
2024/01/05 06:21:15;;;;;;;10.80;5.43;;;5.90;99.90;;;6.08;70.37;94948.78;5012847;28;20469;-62
2024/01/05 06:23:42;;;;;;;17.87;3.87;;;6.10;99.90;;;6.56;70.39;94947.13;5013273;28;20456;-60
2024/01/05 06:26:11;;;;;;;7.23;5.57;;;6.60;99.90;;;7.13;68.96;94946.31;5013355;28;20493;-59
2024/01/05 06:28:38;;;;;;;10.60;5.30;;;7.20;99.90;;;7.76;67.90;94945.84;5013045;28;20465;-62
2024/01/05 06:31:07;;;;;;;10.40;4.53;;;7.80;99.90;;;8.39;66.95;94955.69;5012705;28;20469;-60
2024/01/05 06:33:34;;;;;;;7.90;3.93;;;8.40;99.90;;;9.01;65.59;94945.44;5012898;28;20856;-61
2024/01/05 06:36:01;;;;;;;6.67;4.70;;;9.00;99.90;;;9.61;63.94;94943.00;5013307;28;20845;-62
2024/01/05 06:38:27;;;;;;;8.53;5.00;;;9.60;99.90;;;10.21;62.90;94948.28;5013289;28;20457;-61
2024/01/05 06:40:55;;;;;;;15.97;6.00;;;10.30;99.90;;;10.76;61.83;94940.72;5012926;28;20465;-61
2024/01/05 06:43:24;;;;;;;7.60;4.67;;;10.90;99.90;;;11.37;60.38;94948.41;5012586;28;20460;-61
2024/01/05 06:45:51;;;;;;;8.60;4.50;;;11.50;99.70;;;11.93;59.52;94954.59;5012333;28;20504;-59
2024/01/05 06:48:18;;;;;;;4.97;3.73;;;12.10;98.50;;;12.44;58.87;94953.22;5012303;28;20956;-61
2024/01/05 06:50:46;;;;;;;6.93;3.80;;;12.70;98.20;;;12.95;57.61;94960.59;5012433;28;20584;-60
2024/01/05 06:53:13;;;;;;;4.40;4.00;;;13.20;96.90;;;13.39;56.34;94948.25;5012255;28;20508;-63
2024/01/05 06:55:40;;;;;;;5.90;4.33;;;13.80;95.50;;;13.81;54.25;94959.91;5012694;28;20474;-62
2024/01/05 06:58:08;;;;;;;4.77;3.87;;;14.20;93.30;;;14.22;53.91;94943.38;5012474;28;20460;-63
2024/01/05 07:00:37;;;;;;;10.53;4.60;;;14.60;93.30;;;14.65;53.42;94954.75;5012110;28;20577;-61
2024/01/05 07:03:06;;;;;;;14.63;5.00;;;15.00;92.30;;;14.97;52.10;94943.38;5009621;28;20450;-61
2024/01/05 07:05:33;;;;;;;6.87;5.30;;;15.30;91.00;;;15.24;52.13;94944.03;5008175;28;20546;-63
2024/01/05 07:08:00;;;;;;;26.57;18.63;;;15.50;91.20;;;15.55;51.16;94941.53;5011894;28;20458;-63
2024/01/05 07:10:29;;;;;;;16.13;10.00;;;15.70;89.80;;;15.94;51.04;94935.47;5011926;28;20481;-63
2024/01/05 07:12:56;;;;;;;22.43;8.20;;;16.10;90.10;;;16.33;50.45;94941.78;5012203;28;20454;-63
2024/01/05 07:15:23;;;;;;;12.57;7.67;;;16.50;88.70;;;16.69;49.86;94943.09;5012009;28;20544;-60
2024/01/05 07:17:52;;;;;;;14.63;7.67;;;16.80;87.10;;;17.06;48.74;94945.00;5012047;28;20453;-62
2024/01/05 07:20:19;;;;;;;19.90;6.60;;;17.20;84.40;;;17.42;49.26;94947.03;5011831;28;20469;-63
2024/01/05 07:22:46;;;;;;;9.10;6.00;;;17.60;85.40;;;17.81;47.00;94943.31;5010806;28;20441;-63
2024/01/05 07:25:14;;;;;;;4.30;3.90;;;18.10;81.30;;;18.19;46.61;94937.91;5009796;28;20543;-63
2024/01/05 07:27:41;;;;;;;8.60;5.43;;;18.50;79.40;;;18.50;46.13;94942.19;5011335;28;20460;-62
2024/01/05 07:30:09;;;;;;;6.20;5.60;;;18.90;78.60;;;18.69;45.97;94947.94;5011566;28;20494;-60
2024/01/05 07:32:38;;;;;;;9.67;6.03;;;19.10;76.70;;;18.70;45.26;94941.56;5010490;28;20445;-61
2024/01/05 07:35:08;;;;;;;8.63;5.70;;;19.20;75.00;;;18.67;45.01;94947.28;5012261;28;20592;-61
2024/01/05 07:37:38;;;;;;;12.60;5.67;;;19.30;73.50;;;18.66;44.74;94946.47;5012172;28;20452;-61
2024/01/05 07:40:08;;;;;;;7.70;5.03;;;19.30;72.50;;;18.69;42.46;94945.28;5011211;28;20528;-61
2024/01/05 07:42:35;;;;;;;8.60;6.60;;;19.30;68.60;;;18.72;43.53;94947.56;5011268;28;20493;-62
2024/01/05 07:45:04;;;;;;;9.20;5.80;;;19.30;70.40;;;18.71;43.31;94941.38;5011273;28;20470;-63
2024/01/05 07:47:31;;;;;;;9.27;6.53;;;19.20;69.60;;;18.66;42.94;94956.31;5011622;28;20456;-61
2024/01/05 07:49:59;;;;;;;12.33;5.83;;;19.10;68.50;;;18.55;43.13;94945.09;5012340;28;20469;-63
2024/01/05 07:52:27;;;;;;;15.27;5.43;;;19.00;68.80;;;18.44;43.12;94942.94;5012628;28;20457;-62
2024/01/05 07:54:55;;;;;;;8.17;6.73;;;18.80;67.80;;;18.37;42.80;94934.88;5010873;28;20535;-61
2024/01/05 07:57:22;;;;;;;9.50;6.90;;;18.60;68.10;;;18.43;43.01;94946.59;5011040;28;20458;-61
2024/01/05 07:59:49;;;;;;;11.67;6.60;;;18.60;68.50;;;18.60;43.40;94936.56;5011180;28;20552;-63
2024/01/05 08:02:18;;;;;;;9.00;6.97;;;18.60;68.50;;;18.84;42.71;94946.03;5010662;28;20457;-61
2024/01/05 08:04:45;;;;;;;9.43;7.43;;;18.70;68.10;;;19.12;42.13;94938.16;5008329;28;20477;-63
2024/01/05 08:07:13;;;;;;;20.73;13.50;;;18.90;67.60;;;19.35;42.18;94940.59;5009794;28;20955;-61
2024/01/05 08:09:43;;;;;;;43.13;27.00;;;19.10;67.30;;;19.55;41.14;94947.09;5012145;28;20504;-60
2024/01/05 08:12:11;;;;;;;13.57;9.47;;;19.30;65.90;;;19.72;41.38;94953.81;5010841;28;20500;-64
2024/01/05 08:14:39;;;;;;;8.50;6.50;;;19.50;66.10;;;19.90;40.75;94950.66;5009622;28;20458;-60
2024/01/05 08:17:06;;;;;;;8.90;5.17;;;19.60;64.90;;;20.09;40.88;94957.16;5010765;28;20461;-62
2024/01/05 08:19:33;;;;;;;7.77;6.50;;;19.80;65.40;;;20.31;40.36;94960.56;5010772;28;20481;-64
2024/01/05 08:22:00;;;;;;;14.83;6.20;;;20.00;64.40;;;20.49;39.75;94956.53;5010526;28;20442;-61
2024/01/05 08:24:28;;;;;;;7.00;5.47;;;20.20;63.30;;;20.69;39.90;94959.31;5009218;28;20827;-62
2024/01/05 08:26:56;;;;;;;6.97;4.83;;;20.30;63.10;;;20.90;39.30;94953.00;5010958;28;20608;-62
2024/01/05 08:29:24;;;;;;;5.90;5.30;;;20.50;62.30;;;21.12;38.89;94962.50;5010758;28;20981;-64
2024/01/05 08:31:51;;;;;;;6.67;4.80;;;20.70;61.80;;;21.34;38.77;94959.66;5008710;28;20457;-61
2024/01/05 08:34:18;;;;;;;7.73;5.50;;;20.90;60.90;;;21.52;38.32;94961.75;5003712;28;20445;-64
2024/01/05 08:36:46;;;;;;;5.90;5.00;;;21.10;60.40;;;21.70;37.92;94957.63;5009694;28;20473;-61
2024/01/05 08:39:13;;;;;;;5.63;5.00;;;21.30;59.00;;;21.85;37.44;94964.41;5009254;28;20453;-61
2024/01/05 08:41:43;;;;;;;8.67;5.57;;;21.50;58.70;;;22.04;36.61;94961.91;5004515;28;20598;-63
2024/01/05 08:44:14;;;;;;;8.63;5.17;;;21.60;58.50;;;22.11;36.74;94960.03;5010351;28;20469;-61
2024/01/05 08:46:42;;;;;;;10.90;5.13;;;21.80;57.90;;;21.92;36.91;94963.56;5007205;28;21073;-62
2024/01/05 08:49:09;;;;;;;6.03;4.97;;;21.70;56.90;;;21.62;36.64;94969.38;5001220;28;20954;-62
2024/01/05 08:51:43;;;;;;;11.10;4.90;;;21.40;56.80;;;21.49;36.83;94962.97;5008622;28;20556;-62
2024/01/05 08:54:10;;;;;;;7.63;5.33;;;21.30;57.00;;;21.54;36.24;94953.53;5009893;28;20449;-62
2024/01/05 08:56:38;;;;;;;12.17;6.73;;;21.30;56.20;;;21.52;36.76;94966.25;5009722;28;20561;-61
2024/01/05 08:59:05;;;;;;;14.47;6.50;;;21.20;56.30;;;21.55;36.72;94960.50;5009994;28;20481;-62
2024/01/05 09:01:34;;;;;;;10.57;5.87;;;21.20;56.70;;;21.55;35.75;94960.50;5009903;28;20564;-62
2024/01/05 09:04:01;;;;;;;15.07;5.90;;;21.20;55.10;;;21.62;36.75;94950.63;5008828;28;20454;-60
2024/01/05 09:06:31;;;;;;;16.50;6.60;;;21.20;56.60;;;21.70;35.78;94947.72;5009781;28;20493;-62
2024/01/05 09:08:58;;;;;;;19.43;6.87;;;21.30;55.50;;;21.88;36.82;94939.06;5008909;28;20465;-60
2024/01/05 09:11:26;;;;;;;15.67;6.13;;;21.40;56.70;;;22.08;36.46;94944.41;4999555;28;20469;-63
2024/01/05 09:13:53;;;;;;;12.33;6.37;;;21.60;57.10;;;22.20;36.19;94948.06;5008455;28;20446;-62
2024/01/05 09:16:21;;;;;;;7.47;5.20;;;21.70;56.00;;;22.33;34.79;94943.75;5009562;28;20466;-62
2024/01/05 09:18:49;;;;;;;8.20;5.70;;;21.90;54.40;;;22.50;35.71;94947.59;5009394;28;20453;-62
2024/01/05 09:21:17;;;;;;;10.70;5.30;;;22.00;55.50;;;22.67;34.85;94944.44;5008545;28;20501;-62
2024/01/05 09:23:44;;;;;;;9.63;5.10;;;22.20;55.40;;;22.80;35.21;94939.00;5008563;28;20446;-61
2024/01/05 09:26:15;;;;;;;8.53;5.03;;;22.30;54.70;;;22.95;35.33;94949.44;5008458;28;20513;-62
2024/01/05 09:28:42;;;;;;;8.03;5.40;;;22.50;54.80;;;23.06;34.48;94940.69;5007078;28;20573;-61
2024/01/05 09:31:10;;;;;;;11.43;5.73;;;22.60;54.00;;;23.16;34.98;94940.28;5008455;28;20496;-63
2024/01/05 09:33:37;;;;;;;9.97;6.13;;;22.70;54.10;;;23.30;33.40;94946.38;5008445;28;20532;-62
2024/01/05 09:36:07;;;;;;;8.80;5.67;;;22.80;52.70;;;23.30;31.84;94938.31;5008976;28;20477;-62
2024/01/05 09:38:36;;;;;;;11.37;5.87;;;22.80;49.90;;;23.29;33.62;94938.53;5008901;28;20446;-62
2024/01/05 09:41:03;;;;;;;12.33;5.67;;;22.80;52.60;;;23.40;34.32;94946.69;5001862;28;20474;-64
2024/01/05 09:43:30;;;;;;;13.60;5.67;;;22.90;53.00;;;23.57;34.50;94941.59;5008320;28;20969;-62
2024/01/05 09:45:58;;;;;;;10.97;5.70;;;23.00;53.20;;;23.71;34.21;94947.69;4998430;28;20490;-63
2024/01/05 09:48:26;;;;;;;8.07;5.10;;;23.20;52.70;;;23.88;33.71;94944.50;5005245;28;20465;-61
2024/01/05 09:50:55;;;;;;;8.90;4.80;;;23.30;52.00;;;23.97;32.92;94948.53;5001963;28;20488;-63
2024/01/05 09:53:23;;;;;;;12.10;5.43;;;23.40;51.60;;;23.97;33.57;94951.22;5005379;28;20484;-62
2024/01/05 09:55:51;;;;;;;12.80;5.47;;;23.50;51.90;;;23.98;32.70;94947.47;5008605;28;20915;-62
2024/01/05 09:58:18;;;;;;;10.70;5.10;;;23.50;51.90;;;24.05;33.09;94947.41;5008617;28;20460;-62
2024/01/05 10:00:47;;;;;;;10.13;5.17;;;23.60;51.60;;;24.13;32.64;94937.19;5005471;28;20488;-61
2024/01/05 10:03:22;;;;;;;8.30;5.90;;;23.70;51.50;;;24.22;31.24;94932.34;5003926;28;20870;-64
2024/01/05 10:05:53;;;;;;;9.57;5.10;;;23.80;50.40;;;24.21;32.55;94935.25;5008766;28;20485;-62
2024/01/05 10:08:21;;;;;;;9.20;5.50;;;23.80;50.70;;;24.26;32.67;94930.88;5008800;28;20891;-63
2024/01/05 10:10:53;;;;;;;12.13;5.60;;;23.80;50.50;;;24.41;31.78;94930.47;5008593;28;21022;-63
2024/01/05 10:13:20;;;;;;;9.93;4.60;;;23.90;50.20;;;24.56;31.43;94924.72;5008781;28;20445;-63
2024/01/05 10:15:57;;;;;;;14.97;5.03;;;24.00;49.00;;;24.74;31.68;94928.44;5009161;28;20954;-64
2024/01/05 10:18:25;;;;;;;7.10;4.50;;;24.20;50.00;;;24.88;31.24;94920.00;5008222;28;20473;-63
2024/01/05 10:20:52;;;;;;;5.60;3.10;;;24.30;49.50;;;24.99;31.29;94910.31;5008779;28;20474;-61
2024/01/05 10:23:20;;;;;;;7.50;3.50;;;24.50;48.90;;;25.05;29.85;94909.41;5008864;28;20461;-63
2024/01/05 10:25:49;;;;;;;11.20;3.30;;;24.50;47.00;;;25.05;30.76;94914.78;5008319;28;20473;-64
2024/01/05 10:28:25;;;;;;;5.93;3.40;;;24.60;48.10;;;25.22;30.37;94898.81;5008583;28;20454;-62